Time;durP1;ratioP1;P1;durP2;ratioP2;P2;SDS_P1;SDS_P2;PMS_P1;PMS_P2;Temp;Humidity;BMP_temperature;BMP_pressure;BME280_temperature;BME280_humidity;BME280_pressure;Samples;Min_cycle;Max_cycle;Signal;HPM_P1;HPM_P2
2023/06/21 00:00:31;;;;;;;4.93;3.13;;;19.20;99.90;;;;;;6215188;23;20060;-86
2023/06/21 00:03:01;;;;;;;6.50;3.92;;;19.20;99.90;;;;;;6188884;23;20067;-86
2023/06/21 00:05:27;;;;;;;4.05;3.50;;;19.10;99.90;;;;;;6188853;23;20478;-85
2023/06/21 00:07:54;;;;;;;6.18;4.43;;;19.10;99.90;;;;;;6215327;23;20020;-85
2023/06/21 00:10:24;;;;;;;6.50;4.43;;;19.10;99.90;;;;;;6188133;23;20028;-84
2023/06/21 00:12:53;;;;;;;6.35;3.95;;;19.10;99.90;;;;;;6214923;23;20455;-86
2023/06/21 00:15:20;;;;;;;6.43;5.43;;;19.10;99.90;;;;;;6188733;23;20048;-86
2023/06/21 00:17:46;;;;;;;5.75;4.25;;;19.10;99.90;;;;;;6163513;23;20444;-86
2023/06/21 00:20:12;;;;;;;4.57;3.20;;;19.10;99.90;;;;;;6188238;23;20447;-85
2023/06/21 00:22:39;;;;;;;5.05;3.70;;;19.10;99.90;;;;;;6214905;23;20017;-85
2023/06/21 00:25:06;;;;;;;4.80;3.70;;;19.00;99.90;;;;;;6214669;23;20075;-87
2023/06/21 00:27:32;;;;;;;3.58;2.97;;;19.00;99.90;;;;;;6214639;23;20021;-85
2023/06/21 00:29:57;;;;;;;3.95;3.25;;;19.00;99.90;;;;;;6187998;23;20028;-86
2023/06/21 00:32:23;;;;;;;4.72;3.20;;;19.00;99.90;;;;;;6188016;23;20016;-86
2023/06/21 00:34:49;;;;;;;6.22;4.97;;;19.00;99.90;;;;;;6187608;23;20398;-86
2023/06/21 00:37:15;;;;;;;9.73;4.93;;;19.00;99.90;;;;;;6163387;23;20020;-86
2023/06/21 00:39:41;;;;;;;5.53;4.47;;;19.00;99.90;;;;;;6188466;23;20083;-85
2023/06/21 00:42:08;;;;;;;4.90;3.75;;;19.00;99.90;;;;;;6188722;23;20016;-85
2023/06/21 00:44:35;;;;;;;5.65;4.03;;;19.00;99.90;;;;;;6214853;23;20016;-85
2023/06/21 00:47:01;;;;;;;6.53;4.25;;;19.00;99.90;;;;;;6214965;23;20443;-85
2023/06/21 00:49:27;;;;;;;10.45;5.32;;;19.00;99.90;;;;;;6215216;23;20103;-86
2023/06/21 00:51:57;;;;;;;6.35;3.95;;;19.00;99.90;;;;;;6163142;23;20496;-86
2023/06/21 00:54:29;;;;;;;8.15;5.60;;;19.00;99.90;;;;;;6188026;23;20025;-86
2023/06/21 00:56:56;;;;;;;5.03;3.90;;;19.00;99.90;;;;;;6215135;23;20028;-86
2023/06/21 00:59:27;;;;;;;5.43;3.65;;;18.90;99.90;;;;;;6187638;23;20020;-86
2023/06/21 01:01:56;;;;;;;5.60;3.95;;;18.90;99.90;;;;;;6187681;23;20021;-85
2023/06/21 01:04:27;;;;;;;4.95;4.05;;;18.90;99.90;;;;;;6214955;23;20023;-86
2023/06/21 01:07:13;;;;;;;8.32;6.65;;;18.90;99.90;;;;;;6187984;23;20104;-87
2023/06/21 01:10:02;;;;;;;5.57;4.40;;;18.90;99.90;;;;;;6215221;23;20019;-85
2023/06/21 01:13:04;;;;;;;5.85;4.38;;;18.90;99.90;;;;;;6215001;23;20028;-86
2023/06/21 01:15:45;;;;;;;5.72;4.30;;;18.90;99.90;;;;;;6214772;23;20474;-85
2023/06/21 01:18:14;;;;;;;6.95;4.90;;;18.90;99.90;;;;;;6188548;23;20027;-85
2023/06/21 01:20:41;;;;;;;6.32;4.93;;;18.90;99.90;;;;;;6214570;23;20064;-85
2023/06/21 01:23:54;;;;;;;6.60;4.53;;;18.90;99.90;;;;;;6188354;23;20070;-87
2023/06/21 01:26:52;;;;;;;5.25;4.03;;;18.90;99.90;;;;;;6040715;23;20307;-86
2023/06/21 01:29:24;;;;;;;7.57;5.05;;;18.80;99.90;;;;;;6064462;23;20030;-85
2023/06/21 01:31:53;;;;;;;4.90;3.63;;;18.90;99.90;;;;;;6064414;23;20022;-85
2023/06/21 01:34:19;;;;;;;6.32;5.22;;;18.90;99.90;;;;;;6040744;23;20504;-85
2023/06/21 01:36:45;;;;;;;9.35;7.80;;;18.80;99.90;;;;;;6040765;23;20019;-86
2023/06/21 01:39:11;;;;;;;10.55;7.25;;;18.90;99.90;;;;;;6041613;23;20550;-85
2023/06/21 01:41:37;;;;;;;8.18;6.00;;;18.80;99.90;;;;;;6042741;23;20022;-85
2023/06/21 01:44:05;;;;;;;10.02;7.40;;;18.90;99.90;;;;;;6066481;23;20029;-85
2023/06/21 01:46:31;;;;;;;8.40;5.93;;;18.90;99.90;;;;;;6042134;23;20023;-85
2023/06/21 01:49:00;;;;;;;8.98;6.45;;;18.90;99.90;;;;;;6066584;23;20354;-86
2023/06/21 01:51:26;;;;;;;8.30;5.85;;;18.90;99.90;;;;;;6042505;23;20018;-85
2023/06/21 01:53:53;;;;;;;7.85;5.13;;;18.90;99.90;;;;;;6066184;23;20023;-87
2023/06/21 01:56:19;;;;;;;10.57;7.28;;;18.90;99.90;;;;;;6066247;23;20126;-85
2023/06/21 01:58:48;;;;;;;10.43;7.25;;;18.90;99.90;;;;;;6066118;23;20563;-87
2023/06/21 02:01:17;;;;;;;8.48;6.28;;;18.90;99.90;;;;;;6042315;23;20037;-85
2023/06/21 02:03:48;;;;;;;10.80;8.95;;;18.90;99.90;;;;;;6177802;23;20459;-86
2023/06/21 02:06:15;;;;;;;8.15;6.25;;;18.90;99.90;;;;;;6189443;23;20320;-85
2023/06/21 02:08:43;;;;;;;7.05;5.25;;;18.90;99.90;;;;;;6215926;23;20024;-88
2023/06/21 02:11:08;;;;;;;10.32;8.98;;;18.90;99.90;;;;;;6216351;23;20020;-85
2023/06/21 02:13:36;;;;;;;9.95;6.90;;;18.90;99.90;;;;;;6216219;23;20024;-85
2023/06/21 02:16:02;;;;;;;6.78;5.90;;;18.90;99.90;;;;;;6216371;23;20075;-85
2023/06/21 02:18:28;;;;;;;9.45;7.70;;;18.90;99.90;;;;;;6189256;23;20075;-85
2023/06/21 02:20:54;;;;;;;6.78;5.57;;;18.90;99.90;;;;;;6189282;23;20020;-86
2023/06/21 02:23:19;;;;;;;10.38;7.40;;;18.90;99.90;;;;;;6189762;23;20027;-85
2023/06/21 02:25:45;;;;;;;7.60;6.57;;;18.90;99.90;;;;;;6216237;23;20151;-86
2023/06/21 02:28:11;;;;;;;10.43;6.72;;;18.90;99.90;;;;;;6189124;23;20035;-85
2023/06/21 02:30:37;;;;;;;8.20;6.65;;;18.90;99.90;;;;;;6189156;23;20020;-84
2023/06/21 02:33:02;;;;;;;11.45;7.75;;;18.80;99.90;;;;;;6215885;23;20017;-85
2023/06/21 02:35:28;;;;;;;11.57;9.18;;;18.90;99.90;;;;;;6215916;23;20021;-85
2023/06/21 02:37:55;;;;;;;11.73;9.90;;;18.90;99.90;;;;;;6189011;23;20013;-85
2023/06/21 02:40:21;;;;;;;9.73;8.07;;;18.90;99.90;;;;;;6215849;23;20028;-86
2023/06/21 02:42:46;;;;;;;8.95;7.38;;;18.80;99.90;;;;;;6164832;23;20016;-85
2023/06/21 02:45:12;;;;;;;10.75;8.30;;;18.80;99.90;;;;;;6189216;23;20048;-85
2023/06/21 02:47:38;;;;;;;10.75;7.43;;;18.80;99.90;;;;;;6189304;23;20032;-85
2023/06/21 02:50:04;;;;;;;8.60;7.07;;;18.80;99.90;;;;;;6215478;23;20028;-85
2023/06/21 02:52:30;;;;;;;8.38;7.43;;;18.80;99.90;;;;;;6215838;23;20079;-86
2023/06/21 02:54:58;;;;;;;8.65;6.78;;;18.80;99.90;;;;;;6189233;23;20308;-85
2023/06/21 02:57:24;;;;;;;9.40;7.57;;;18.80;99.90;;;;;;6215779;23;20021;-85
2023/06/21 02:59:50;;;;;;;13.32;10.75;;;18.80;99.90;;;;;;6164126;23;20066;-85
2023/06/21 03:02:18;;;;;;;11.38;8.73;;;18.70;99.90;;;;;;6215863;23;20044;-85
2023/06/21 03:04:44;;;;;;;11.27;8.90;;;18.70;99.90;;;;;;6189553;23;20028;-85
2023/06/21 03:07:10;;;;;;;12.23;9.50;;;18.70;99.90;;;;;;6215903;23;20023;-85
2023/06/21 03:09:35;;;;;;;16.23;12.18;;;18.70;99.90;;;;;;6164200;23;20092;-86
2023/06/21 03:12:08;;;;;;;11.43;9.35;;;18.60;99.90;;;;;;6215608;23;20025;-85
2023/06/21 03:14:41;;;;;;;15.90;11.90;;;18.70;99.90;;;;;;6215705;23;20024;-85
2023/06/21 03:17:09;;;;;;;18.85;13.95;;;18.70;99.90;;;;;;6189284;23;20016;-87
2023/06/21 03:19:35;;;;;;;16.88;13.05;;;18.70;99.90;;;;;;6215794;23;20016;-85
2023/06/21 03:22:01;;;;;;;16.70;12.38;;;18.70;99.90;;;;;;6188849;23;20416;-85
2023/06/21 03:24:32;;;;;;;19.15;13.60;;;18.70;99.90;;;;;;6215180;23;20063;-85
2023/06/21 03:26:58;;;;;;;15.60;12.05;;;18.70;99.90;;;;;;6215438;23;20451;-85
2023/06/21 03:29:24;;;;;;;16.55;13.13;;;18.70;99.90;;;;;;6215340;23;20096;-86
2023/06/21 03:31:49;;;;;;;15.50;12.52;;;18.70;99.90;;;;;;6188759;23;20051;-86
2023/06/21 03:34:15;;;;;;;14.65;12.10;;;18.60;99.90;;;;;;6215796;23;20021;-85
2023/06/21 03:36:41;;;;;;;19.73;13.93;;;18.60;99.90;;;;;;6189213;23;20016;-85
2023/06/21 03:39:06;;;;;;;19.35;13.63;;;18.70;99.90;;;;;;6189166;23;20027;-87
2023/06/21 03:41:32;;;;;;;16.08;12.43;;;18.60;99.90;;;;;;6215073;23;20028;-85
2023/06/21 03:43:58;;;;;;;17.23;11.65;;;18.70;99.90;;;;;;6215602;23;20020;-85
2023/06/21 03:46:24;;;;;;;17.35;11.73;;;18.70;99.90;;;;;;6215050;23;20020;-86
2023/06/21 03:48:51;;;;;;;15.05;11.13;;;18.60;99.90;;;;;;6188359;23;20028;-84
2023/06/21 03:51:18;;;;;;;15.10;11.15;;;18.60;99.90;;;;;;6215578;23;20320;-86
2023/06/21 03:53:43;;;;;;;22.75;16.65;;;18.60;99.90;;;;;;6215407;23;20113;-85
2023/06/21 03:56:09;;;;;;;23.35;16.25;;;18.60;99.90;;;;;;6215526;23;20025;-85
2023/06/21 03:58:35;;;;;;;25.20;16.63;;;18.50;99.90;;;;;;6214945;23;20025;-86
2023/06/21 04:01:00;;;;;;;23.45;17.23;;;18.60;99.90;;;;;;6188276;23;20021;-85
2023/06/21 04:03:26;;;;;;;25.98;18.45;;;18.50;99.90;;;;;;6215534;23;20109;-85
2023/06/21 04:05:53;;;;;;;19.05;14.93;;;18.60;99.90;;;;;;6215701;23;20024;-86
2023/06/21 04:08:19;;;;;;;18.38;14.45;;;18.50;99.90;;;;;;6214914;23;20155;-85
2023/06/21 04:10:45;;;;;;;21.55;15.43;;;18.50;99.90;;;;;;6187918;23;20447;-86
2023/06/21 04:13:11;;;;;;;20.73;14.05;;;18.50;99.90;;;;;;6215206;23;20037;-86
2023/06/21 04:15:36;;;;;;;17.95;13.07;;;18.50;99.90;;;;;;6215475;23;20020;-85
2023/06/21 04:18:02;;;;;;;24.88;17.20;;;18.50;99.90;;;;;;6188680;23;20399;-85
2023/06/21 04:20:28;;;;;;;20.27;15.80;;;18.50;99.90;;;;;;6188224;23;20021;-87
2023/06/21 04:22:53;;;;;;;18.38;12.80;;;18.40;99.90;;;;;;6163890;23;20028;-86
2023/06/21 04:25:19;;;;;;;20.75;16.58;;;18.50;99.90;;;;;;6215140;23;20027;-85
2023/06/21 04:27:47;;;;;;;14.82;11.68;;;18.50;99.90;;;;;;6188682;23;20027;-86
2023/06/21 04:30:14;;;;;;;17.90;13.20;;;18.50;99.90;;;;;;6187599;23;20090;-86
2023/06/21 04:32:46;;;;;;;15.05;11.30;;;18.50;99.90;;;;;;6215405;23;20021;-86
2023/06/21 04:35:14;;;;;;;17.17;13.02;;;18.50;99.90;;;;;;6188260;23;20032;-85
2023/06/21 04:37:44;;;;;;;19.95;13.93;;;18.50;99.90;;;;;;6188683;23;20021;-85
2023/06/21 04:40:15;;;;;;;13.75;10.90;;;18.50;99.90;;;;;;6188169;23;20513;-87
2023/06/21 04:42:45;;;;;;;21.98;16.27;;;18.60;99.90;;;;;;6215059;23;20099;-85
2023/06/21 04:45:15;;;;;;;17.25;11.88;;;18.60;99.90;;;;;;6214843;23;20009;-86
2023/06/21 04:47:47;;;;;;;22.48;15.57;;;18.60;99.90;;;;;;6215352;23;20027;-87
2023/06/21 04:50:13;;;;;;;21.25;16.15;;;18.60;99.90;;;;;;6215064;23;20016;-85
2023/06/21 04:52:39;;;;;;;18.58;12.90;;;18.60;99.90;;;;;;6188733;23;20021;-85
2023/06/21 04:55:05;;;;;;;23.25;15.75;;;18.70;99.90;;;;;;6187837;23;20103;-86
2023/06/21 04:57:32;;;;;;;19.38;12.98;;;18.60;99.90;;;;;;6187975;23;20025;-86
2023/06/21 04:59:58;;;;;;;17.02;11.48;;;18.60;99.90;;;;;;6214629;23;20459;-85
2023/06/21 05:02:25;;;;;;;16.95;12.68;;;18.70;99.90;;;;;;6215053;23;20027;-85
2023/06/21 05:04:51;;;;;;;14.75;10.55;;;18.70;99.90;;;;;;6163318;23;20099;-85
2023/06/21 05:07:16;;;;;;;20.15;14.32;;;18.80;99.90;;;;;;6215525;23;20052;-85
2023/06/21 05:09:43;;;;;;;16.30;11.93;;;18.80;99.90;;;;;;6188465;23;20048;-85
2023/06/21 05:12:09;;;;;;;13.75;10.18;;;18.80;99.90;;;;;;6215336;23;20017;-85
2023/06/21 05:14:35;;;;;;;15.35;10.80;;;18.90;99.90;;;;;;6217079;23;20025;-85
2023/06/21 05:17:00;;;;;;;17.42;11.77;;;18.90;99.90;;;;;;6217140;23;20463;-85
2023/06/21 05:19:26;;;;;;;16.48;10.20;;;18.90;99.90;;;;;;6190022;23;20028;-85
2023/06/21 05:21:52;;;;;;;17.30;11.32;;;18.90;99.90;;;;;;6190558;23;20146;-85
2023/06/21 05:24:17;;;;;;;17.88;11.02;;;19.00;99.90;;;;;;6216946;23;20020;-84
2023/06/21 05:26:44;;;;;;;15.80;10.85;;;18.90;99.90;;;;;;6189730;23;20024;-84
2023/06/21 05:29:13;;;;;;;15.68;9.77;;;19.00;99.90;;;;;;6189525;23;20082;-83
2023/06/21 05:31:42;;;;;;;16.92;10.20;;;19.00;99.90;;;;;;6216748;23;20025;-84
2023/06/21 05:34:08;;;;;;;13.30;8.88;;;19.00;99.90;;;;;;6216612;23;20467;-83
2023/06/21 05:36:35;;;;;;;15.13;10.15;;;19.10;99.90;;;;;;6216254;23;20020;-85
2023/06/21 05:39:03;;;;;;;12.55;8.45;;;19.20;99.90;;;;;;6216602;23;20027;-84
2023/06/21 05:41:28;;;;;;;10.00;7.38;;;19.30;99.90;;;;;;6216418;23;20063;-83
2023/06/21 05:43:54;;;;;;;13.15;7.75;;;19.30;99.90;;;;;;6189791;23;20017;-85
2023/06/21 05:46:20;;;;;;;13.05;8.18;;;19.40;99.90;;;;;;6216087;23;20025;-83
2023/06/21 05:48:45;;;;;;;12.25;7.32;;;19.40;99.90;;;;;;6189638;23;20056;-84
2023/06/21 05:51:19;;;;;;;12.50;7.30;;;19.50;99.90;;;;;;6216538;23;20021;-90
2023/06/21 05:53:45;;;;;;;10.75;6.85;;;19.50;99.90;;;;;;6189290;23;20035;-89
2023/06/21 05:56:10;;;;;;;9.07;5.22;;;19.60;99.90;;;;;;6164529;23;20025;-83
2023/06/21 05:58:36;;;;;;;10.93;7.20;;;19.60;99.90;;;;;;6189436;23;20074;-86
2023/06/21 06:01:03;;;;;;;13.13;6.85;;;19.60;99.90;;;;;;6190596;23;20028;-89
2023/06/21 06:03:28;;;;;;;11.02;7.30;;;19.60;99.90;;;;;;6189118;23;20016;-83
2023/06/21 06:05:55;;;;;;;10.68;6.40;;;19.60;99.90;;;;;;6165053;23;20059;-89
2023/06/21 06:08:21;;;;;;;12.38;6.75;;;19.60;99.90;;;;;;6164323;23;20040;-84
2023/06/21 06:10:48;;;;;;;8.75;4.60;;;19.60;99.90;;;;;;6189432;23;20478;-84
2023/06/21 06:13:14;;;;;;;9.52;6.40;;;19.60;99.90;;;;;;6189587;23;20035;-85
2023/06/21 06:15:39;;;;;;;12.38;7.30;;;19.70;99.90;;;;;;6215365;23;20150;-85
2023/06/21 06:18:05;;;;;;;11.82;6.18;;;19.90;99.90;;;;;;6215861;23;20067;-85
2023/06/21 06:20:31;;;;;;;10.77;6.18;;;19.90;99.90;;;;;;6189595;23;20027;-87
2023/06/21 06:22:56;;;;;;;7.30;4.72;;;20.00;99.90;;;;;;6189228;23;20399;-86
2023/06/21 06:25:22;;;;;;;7.65;5.07;;;20.00;99.90;;;;;;6188659;23;20025;-85
2023/06/21 06:27:48;;;;;;;9.98;6.25;;;20.00;99.90;;;;;;6188816;23;20025;-86
2023/06/21 06:30:14;;;;;;;8.40;6.00;;;20.00;99.90;;;;;;6215198;23;20024;-86
2023/06/21 06:32:39;;;;;;;9.85;5.80;;;20.10;99.90;;;;;;6188727;23;20029;-87
2023/06/21 06:35:06;;;;;;;8.70;4.78;;;20.20;99.90;;;;;;6188567;23;20351;-85
2023/06/21 06:37:32;;;;;;;9.65;6.85;;;20.30;99.90;;;;;;6216174;23;20024;-87
2023/06/21 06:39:58;;;;;;;7.47;5.40;;;20.40;99.90;;;;;;6188898;23;20113;-91
2023/06/21 06:42:24;;;;;;;7.13;5.80;;;20.60;99.90;;;;;;6215896;23;20060;-84
2023/06/21 06:44:51;;;;;;;8.15;4.55;;;20.70;99.90;;;;;;6188951;23;20027;-86
2023/06/21 06:47:17;;;;;;;9.05;5.05;;;20.80;99.90;;;;;;6214882;23;20100;-85
2023/06/21 06:49:43;;;;;;;6.72;4.65;;;21.00;99.90;;;;;;6189390;23;20023;-87
2023/06/21 06:52:11;;;;;;;7.47;5.30;;;21.10;99.90;;;;;;6189148;23;20032;-85
2023/06/21 06:54:37;;;;;;;11.93;6.50;;;21.20;99.90;;;;;;6189153;23;20024;-85
2023/06/21 06:57:03;;;;;;;13.35;7.53;;;21.30;99.90;;;;;;6189083;23;20046;-84
2023/06/21 06:59:29;;;;;;;11.85;6.32;;;21.40;99.90;;;;;;6188310;23;20039;-85
2023/06/21 07:01:54;;;;;;;8.38;5.30;;;21.50;99.90;;;;;;6189148;23;20024;-84
2023/06/21 07:04:20;;;;;;;6.97;4.28;;;21.60;99.90;;;;;;6215313;23;20028;-86
2023/06/21 07:06:46;;;;;;;8.07;5.03;;;21.70;99.90;;;;;;6216010;23;20017;-84
2023/06/21 07:09:11;;;;;;;6.35;4.20;;;21.90;99.90;;;;;;6189403;23;20525;-84
2023/06/21 07:11:37;;;;;;;6.40;4.00;;;22.00;99.90;;;;;;6189178;23;20048;-84
2023/06/21 07:14:03;;;;;;;6.97;3.75;;;22.20;99.90;;;;;;6215165;23;20023;-84
2023/06/21 07:16:35;;;;;;;9.30;5.43;;;22.30;99.90;;;;;;6215667;23;20052;-85
2023/06/21 07:19:03;;;;;;;7.65;4.03;;;22.40;99.90;;;;;;6215650;23;20972;-85
2023/06/21 07:21:29;;;;;;;8.32;4.40;;;22.60;99.90;;;;;;6215667;23;20121;-86
2023/06/21 07:23:54;;;;;;;5.55;4.00;;;22.60;99.90;;;;;;6215807;23;20092;-85
2023/06/21 07:26:20;;;;;;;9.15;4.68;;;22.70;99.90;;;;;;6215742;23;20327;-84
2023/06/21 07:28:46;;;;;;;6.65;3.97;;;22.70;99.90;;;;;;6188521;23;20021;-84
2023/06/21 07:31:11;;;;;;;7.32;3.38;;;22.70;99.90;;;;;;6214944;23;20016;-84
2023/06/21 07:33:37;;;;;;;6.15;4.13;;;22.70;99.90;;;;;;6215735;23;20447;-84
2023/06/21 07:36:03;;;;;;;6.88;3.75;;;22.70;99.90;;;;;;6188446;23;20099;-83
2023/06/21 07:38:29;;;;;;;6.55;3.30;;;22.80;99.90;;;;;;6215483;23;20032;-85
2023/06/21 07:40:55;;;;;;;4.32;3.22;;;22.90;99.90;;;;;;6215375;23;20350;-84
2023/06/21 07:43:20;;;;;;;4.60;2.70;;;23.20;99.90;;;;;;6189026;23;20063;-84
2023/06/21 07:45:46;;;;;;;5.75;3.22;;;23.30;99.90;;;;;;6188897;23;20020;-85
2023/06/21 07:48:12;;;;;;;5.65;3.55;;;23.40;99.90;;;;;;6188677;23;20099;-85
2023/06/21 07:50:38;;;;;;;3.67;1.95;;;23.50;99.90;;;;;;6188714;23;20418;-86
2023/06/21 07:53:04;;;;;;;5.00;2.55;;;23.50;99.90;;;;;;6215386;23;20340;-84
2023/06/21 07:55:29;;;;;;;4.70;3.10;;;23.50;99.90;;;;;;6215234;23;20316;-83
2023/06/21 07:57:55;;;;;;;5.13;2.15;;;23.60;99.90;;;;;;6188933;23;20020;-83
2023/06/21 08:00:21;;;;;;;4.22;2.25;;;23.80;99.90;;;;;;6189223;23;20155;-84
2023/06/21 08:02:51;;;;;;;4.63;2.38;;;23.90;99.90;;;;;;6188731;23;20021;-84
2023/06/21 08:05:17;;;;;;;4.75;2.22;;;23.90;99.90;;;;;;6215540;23;20016;-84
2023/06/21 08:07:43;;;;;;;2.70;1.77;;;24.00;99.90;;;;;;6215123;23;20021;-84
2023/06/21 08:10:09;;;;;;;4.20;2.20;;;24.00;99.90;;;;;;6215466;23;20009;-84
2023/06/21 08:12:35;;;;;;;3.38;2.47;;;23.90;99.90;;;;;;6214907;23;20491;-85
2023/06/21 08:15:01;;;;;;;3.30;2.03;;;24.00;99.90;;;;;;6189091;23;20056;-84
2023/06/21 08:17:27;;;;;;;3.83;2.20;;;24.10;99.90;;;;;;6215425;23;20020;-85
2023/06/21 08:19:53;;;;;;;4.55;1.42;;;24.20;99.90;;;;;;6215526;23;20044;-84
2023/06/21 08:22:18;;;;;;;4.05;1.58;;;24.30;99.90;;;;;;6188962;23;20012;-85
2023/06/21 08:24:44;;;;;;;2.45;1.55;;;24.40;99.90;;;;;;6188218;23;20024;-84
2023/06/21 08:27:10;;;;;;;5.57;2.40;;;24.50;99.90;;;;;;6215504;23;20079;-86
2023/06/21 08:29:36;;;;;;;4.50;2.42;;;24.50;99.90;;;;;;6214569;23;20383;-85
2023/06/21 08:32:03;;;;;;;2.40;1.55;;;24.60;99.90;;;;;;6188086;23;20435;-85
2023/06/21 08:34:29;;;;;;;3.50;2.10;;;24.70;99.90;;;;;;6214924;23;20027;-84
2023/06/21 08:36:54;;;;;;;2.92;2.20;;;24.90;99.90;;;;;;6188463;23;20021;-85
2023/06/21 08:39:20;;;;;;;5.88;2.80;;;24.90;99.90;;;;;;6215059;23;20028;-84
2023/06/21 08:41:46;;;;;;;6.20;2.60;;;25.00;99.90;;;;;;6215233;23;20027;-84
2023/06/21 08:44:12;;;;;;;3.70;1.60;;;25.00;99.90;;;;;;6163404;23;20029;-84
2023/06/21 08:46:39;;;;;;;3.92;1.65;;;25.00;99.90;;;;;;6215416;23;20328;-86
2023/06/21 08:49:08;;;;;;;2.67;1.50;;;25.00;99.90;;;;;;6188192;23;20025;-88
2023/06/21 08:51:38;;;;;;;3.63;1.95;;;25.10;99.90;;;;;;6214879;23;20031;-86
2023/06/21 08:54:07;;;;;;;3.10;1.52;;;25.40;99.90;;;;;;6188679;23;20024;-86
2023/06/21 08:56:40;;;;;;;1.90;1.02;;;25.50;99.90;;;;;;6188462;23;20056;-86
2023/06/21 08:59:08;;;;;;;3.85;2.28;;;25.70;99.90;;;;;;6215158;23;20419;-86
2023/06/21 09:01:55;;;;;;;2.97;1.67;;;25.60;99.90;;;;;;6214839;23;20024;-84
2023/06/21 09:04:25;;;;;;;3.38;1.77;;;25.80;99.90;;;;;;6214971;23;20017;-87
2023/06/21 09:06:51;;;;;;;5.72;2.50;;;26.00;99.90;;;;;;6188452;23;20375;-85
2023/06/21 09:09:20;;;;;;;2.78;1.23;;;26.00;99.90;;;;;;6214977;23;20447;-84
2023/06/21 09:11:46;;;;;;;4.95;1.17;;;26.10;99.90;;;;;;6214686;23;20459;-84
2023/06/21 09:14:12;;;;;;;2.50;1.40;;;26.20;99.90;;;;;;6214752;23;20095;-85
2023/06/21 09:16:39;;;;;;;1.45;1.00;;;26.30;99.90;;;;;;6215259;23;20012;-84
2023/06/21 09:19:05;;;;;;;2.95;1.23;;;26.50;99.90;;;;;;6188202;23;20090;-84
2023/06/21 09:21:32;;;;;;;1.67;1.00;;;26.40;99.90;;;;;;6188614;23;20092;-84
2023/06/21 09:23:58;;;;;;;3.90;1.30;;;26.40;99.90;;;;;;6215271;23;20021;-84
2023/06/21 09:26:23;;;;;;;2.85;1.17;;;26.50;99.90;;;;;;6215065;23;20340;-84
2023/06/21 09:28:49;;;;;;;3.78;0.98;;;26.70;99.90;;;;;;6188348;23;20079;-86
2023/06/21 09:31:15;;;;;;;2.88;1.00;;;26.90;99.90;;;;;;6188684;23;20021;-84
2023/06/21 09:33:43;;;;;;;2.45;1.25;;;26.90;99.90;;;;;;6188863;23;20067;-84
2023/06/21 09:36:09;;;;;;;3.35;1.33;;;26.90;99.90;;;;;;6188988;23;20020;-87
2023/06/21 09:38:38;;;;;;;2.97;1.77;;;26.90;99.90;;;;;;6215446;23;20021;-85
2023/06/21 09:41:07;;;;;;;1.27;0.85;;;26.90;99.90;;;;;;6214593;23;20031;-85
2023/06/21 09:43:39;;;;;;;3.58;1.58;;;26.90;99.90;;;;;;6214748;23;20020;-85
2023/06/21 09:46:11;;;;;;;1.90;0.98;;;26.80;99.90;;;;;;6214920;23;20075;-84
2023/06/21 09:48:38;;;;;;;2.53;1.00;;;27.20;99.90;;;;;;6215397;23;20017;-85
2023/06/21 09:51:10;;;;;;;2.55;1.10;;;27.30;99.90;;;;;;6188564;23;20467;-87
2023/06/21 09:53:36;;;;;;;2.80;0.90;;;27.20;99.90;;;;;;6188351;23;20415;-84
2023/06/21 09:56:03;;;;;;;2.30;1.10;;;27.40;99.90;;;;;;6215206;23;20016;-87
2023/06/21 09:58:33;;;;;;;2.38;1.05;;;27.40;99.90;;;;;;6215148;23;20024;-84
2023/06/21 10:00:59;;;;;;;3.63;1.10;;;27.60;99.90;;;;;;6190192;23;20017;-86
2023/06/21 10:03:25;;;;;;;2.85;1.40;;;27.70;99.90;;;;;;6190655;23;20051;-84
2023/06/21 10:05:57;;;;;;;1.77;1.02;;;27.80;99.90;;;;;;6216766;23;20023;-86
2023/06/21 10:08:33;;;;;;;1.48;0.80;;;27.80;99.90;;;;;;6190081;23;20070;-84
2023/06/21 10:10:59;;;;;;;2.28;0.90;;;27.70;99.90;;;;;;6216711;23;20098;-86
2023/06/21 10:13:27;;;;;;;2.67;1.25;;;27.70;99.90;;;;;;6189844;23;20020;-84
2023/06/21 10:15:54;;;;;;;1.85;1.10;;;27.80;99.90;;;;;;6190127;23;20024;-85
2023/06/21 10:18:20;;;;;;;1.52;0.70;;;28.00;99.90;;;;;;6216667;23;20477;-86
2023/06/21 10:20:56;;;;;;;2.65;1.00;;;28.10;99.90;;;;;;6216859;23;20016;-84
2023/06/21 10:23:30;;;;;;;2.28;0.80;;;28.20;99.50;;;;;;6216776;23;20055;-85
2023/06/21 10:26:02;;;;;;;4.05;1.10;;;28.30;99.90;;;;;;6216214;23;20019;-85
2023/06/21 10:28:30;;;;;;;1.75;1.10;;;28.40;99.90;;;;;;6216434;23;20025;-85
2023/06/21 10:30:57;;;;;;;1.40;0.90;;;28.50;99.70;;;;;;6216168;23;20031;-85
2023/06/21 10:33:24;;;;;;;1.65;0.80;;;28.60;99.30;;;;;;6216887;23;20031;-86
2023/06/21 10:35:53;;;;;;;4.60;1.00;;;28.70;99.10;;;;;;6216529;23;20087;-86
2023/06/21 10:38:37;;;;;;;1.98;0.88;;;28.70;98.30;;;;;;6189757;23;20025;-86
2023/06/21 10:41:04;;;;;;;2.50;0.75;;;29.00;98.90;;;;;;6189513;23;20016;-86
2023/06/21 10:43:31;;;;;;;1.20;0.80;;;29.10;98.00;;;;;;6216280;23;20056;-87
2023/06/21 10:45:58;;;;;;;1.88;1.10;;;29.10;99.30;;;;;;6216970;23;20055;-87
2023/06/21 10:48:25;;;;;;;1.70;1.23;;;29.30;98.00;;;;;;6216756;23;20063;-85
2023/06/21 10:50:52;;;;;;;6.00;0.70;;;29.30;98.20;;;;;;6190398;23;20079;-85
2023/06/21 10:53:19;;;;;;;3.28;0.85;;;29.10;98.60;;;;;;6189453;23;20114;-84
2023/06/21 10:55:46;;;;;;;1.52;0.70;;;29.20;98.70;;;;;;6189612;23;20020;-86
2023/06/21 10:58:13;;;;;;;3.75;0.98;;;29.30;97.60;;;;;;6216231;23;20016;-84
2023/06/21 11:00:42;;;;;;;1.42;0.70;;;29.40;97.50;;;;;;6219892;23;20024;-84
2023/06/21 11:03:12;;;;;;;1.35;0.70;;;29.30;97.20;;;;;;6195000;23;20013;-86
2023/06/21 11:05:39;;;;;;;1.17;0.80;;;29.00;97.50;;;;;;6190433;23;20060;-84
2023/06/21 11:08:06;;;;;;;0.98;0.70;;;28.50;96.50;;;;;;6217549;23;20027;-85
2023/06/21 11:10:49;;;;;;;0.80;0.50;;;28.50;98.00;;;;;;6217271;23;20017;-86
2023/06/21 11:13:17;;;;;;;1.85;0.77;;;28.90;97.20;;;;;;6217029;23;20017;-88
2023/06/21 11:15:47;;;;;;;2.15;0.60;;;29.20;97.80;;;;;;6218008;23;20031;-86
2023/06/21 11:18:20;;;;;;;0.88;0.40;;;29.20;97.10;;;;;;6191599;23;20432;-88
2023/06/21 11:20:56;;;;;;;1.35;0.63;;;29.40;96.30;;;;;;6193231;23;20035;-86
2023/06/21 11:23:23;;;;;;;1.00;0.50;;;29.60;96.40;;;;;;6219575;23;20086;-86
2023/06/21 11:26:15;;;;;;;1.10;0.50;;;29.80;95.20;;;;;;6191608;23;20027;-89
2023/06/21 11:28:46;;;;;;;1.42;0.60;;;30.00;95.90;;;;;;6068269;23;20027;-85
2023/06/21 11:31:14;;;;;;;1.70;0.70;;;30.20;96.40;;;;;;6067757;23;20065;-87
2023/06/21 11:33:48;;;;;;;0.95;0.60;;;30.20;95.50;;;;;;6067404;23;20038;-85
2023/06/21 11:36:16;;;;;;;1.45;0.40;;;30.30;94.90;;;;;;6066935;23;20462;-86
2023/06/21 11:39:10;;;;;;;1.23;0.68;;;30.10;95.00;;;;;;6066846;23;20442;-86
2023/06/21 11:41:44;;;;;;;1.70;0.70;;;29.50;94.70;;;;;;6066701;23;20023;-87
2023/06/21 11:44:25;;;;;;;1.23;0.60;;;29.00;94.70;;;;;;6042253;23;20019;-87
2023/06/21 11:47:16;;;;;;;1.83;0.47;;;28.90;95.30;;;;;;6066302;23;20022;-86
2023/06/21 11:49:58;;;;;;;1.50;0.80;;;28.90;95.40;;;;;;6066427;23;20039;-87
2023/06/21 11:52:31;;;;;;;0.80;0.60;;;29.10;95.70;;;;;;6066253;23;20061;-88
2023/06/21 11:55:13;;;;;;;0.80;0.40;;;29.20;96.50;;;;;;6066402;23;20023;-88
2023/06/21 11:57:42;;;;;;;1.48;0.80;;;29.70;95.70;;;;;;6066289;23;20062;-87
2023/06/21 12:00:09;;;;;;;2.10;0.90;;;29.80;95.00;;;;;;6065786;23;20393;-85
2023/06/21 12:02:34;;;;;;;1.33;0.70;;;30.10;95.00;;;;;;6065895;23;20023;-86
2023/06/21 12:05:00;;;;;;;1.65;0.70;;;30.10;94.50;;;;;;6076046;23;20384;-86
2023/06/21 12:07:26;;;;;;;2.13;0.60;;;30.30;94.90;;;;;;6215637;23;20338;-85
2023/06/21 12:09:52;;;;;;;1.42;0.82;;;30.40;93.90;;;;;;6215385;23;20017;-87
2023/06/21 12:12:18;;;;;;;1.10;0.60;;;30.40;94.10;;;;;;6215354;23;20032;-86
2023/06/21 12:14:44;;;;;;;1.13;0.60;;;30.70;94.40;;;;;;6188859;23;20012;-85
2023/06/21 12:17:17;;;;;;;1.23;0.70;;;30.40;94.30;;;;;;6215238;23;20024;-85
2023/06/21 12:19:43;;;;;;;1.75;1.00;;;30.50;93.50;;;;;;6215347;23;20016;-85
2023/06/21 12:22:12;;;;;;;1.25;0.60;;;30.30;92.70;;;;;;6214981;23;20054;-85
2023/06/21 12:24:38;;;;;;;2.08;0.70;;;30.10;93.80;;;;;;6215514;23;20020;-85
2023/06/21 12:27:04;;;;;;;1.48;0.60;;;29.60;93.90;;;;;;6215231;23;20032;-84
2023/06/21 12:29:30;;;;;;;3.08;0.95;;;29.30;94.00;;;;;;6214998;23;20021;-85
2023/06/21 12:31:58;;;;;;;1.85;0.57;;;29.00;94.40;;;;;;6215131;23;20073;-84
2023/06/21 12:34:25;;;;;;;0.93;0.60;;;29.20;94.60;;;;;;6188364;23;20024;-85
2023/06/21 12:36:54;;;;;;;2.28;0.80;;;29.10;95.50;;;;;;6214964;23;20078;-85
2023/06/21 12:39:21;;;;;;;2.15;0.80;;;28.90;95.20;;;;;;6214926;23;20509;-85
2023/06/21 12:41:47;;;;;;;1.48;0.70;;;28.90;96.30;;;;;;6188239;23;20351;-84
2023/06/21 12:44:24;;;;;;;1.20;0.80;;;28.80;96.10;;;;;;6215263;23;20025;-85